VSA weather

Carlos Rovirosa Pérez International Airport
Villahermosa, Tabasco, Mexico

Public forecast

Using degrees Celsius for public forecast. Weather courtesy of forecast.io.

Current aviation weather report (METAR) for Carlos Rovirosa Pérez International Airport

Retrieved 2019/12/09 01:44 UTC (13 minutes ago):

MMVA 090144Z 00000KT 7SM SKC 22/22 A3001

Aviation forecast (TAF) for Carlos Rovirosa Pérez International Airport

Forecast is more than 6 hours old.

Retrieved 2019/12/08 18:24 UTC (8 hours ago):

TAF MMVA 081620Z 0818/0918 08008KT P6SM SCT015 BKN020 FM090300 09008KT 5SM HZ SCT012 BKN020 TEMPO 0910/0914 1SM BR HZ OVC006 FM091500 08006KT 4SM HZ BKN010